createdAt,value
2022-07-29T00:01:26.206Z,88623.69
2022-07-29T00:04:11.029Z,88622.31
2022-07-29T00:06:56.322Z,88621.59
2022-07-29T00:09:43.011Z,88624.47
2022-07-29T00:12:35.791Z,88631.97
2022-07-29T00:15:21.057Z,88623.78
2022-07-29T00:18:05.877Z,88626.06
2022-07-29T00:20:50.580Z,88629.41
2022-07-29T00:23:36.911Z,88619.72
2022-07-29T00:26:21.825Z,88620.41
2022-07-29T00:29:33.069Z,88621.69
2022-07-29T00:32:11.641Z,88620.06
2022-07-29T00:34:56.316Z,88612.00
2022-07-29T00:37:41.091Z,88612.47
2022-07-29T00:40:25.846Z,88604.38
2022-07-29T00:43:10.668Z,88603.78
2022-07-29T00:45:55.535Z,88608.34
2022-07-29T00:48:40.287Z,88603.63
2022-07-29T00:51:25.562Z,88599.59
2022-07-29T00:54:11.870Z,88597.06
2022-07-29T00:56:57.300Z,88596.25
2022-07-29T00:59:41.903Z,88597.94
2022-07-29T01:02:26.790Z,88597.59
2022-07-29T01:05:12.068Z,88604.72
2022-07-29T01:07:56.793Z,88601.84
2022-07-29T01:10:41.554Z,88608.81
2022-07-29T01:13:26.258Z,88607.63
2022-07-29T01:16:11.122Z,88606.50
2022-07-29T01:18:56.335Z,88606.63
2022-07-29T01:21:41.196Z,88605.66
2022-07-29T01:24:27.435Z,88595.53
2022-07-29T01:27:12.030Z,88593.44
2022-07-29T01:30:01.395Z,88596.53
2022-07-29T01:32:50.330Z,88599.38
2022-07-29T01:35:34.942Z,88601.53
2022-07-29T01:38:19.735Z,88596.53
2022-07-29T01:41:04.997Z,88596.03
2022-07-29T01:43:49.656Z,88594.63
2022-07-29T01:46:34.439Z,88600.06
2022-07-29T01:49:19.363Z,88598.94
2022-07-29T01:52:04.514Z,88595.91
2022-07-29T01:54:49.197Z,88589.94
2022-07-29T01:57:34.023Z,88592.56
2022-07-29T02:00:18.840Z,88598.31
2022-07-29T02:03:03.852Z,88596.53
2022-07-29T02:05:48.494Z,88597.78
2022-07-29T02:08:33.312Z,88603.06
2022-07-29T02:11:18.097Z,88594.75
2022-07-29T02:14:03.471Z,88589.22
2022-07-29T02:16:48.331Z,88593.56
2022-07-29T02:19:32.886Z,88590.91
2022-07-29T02:22:17.899Z,88581.97
2022-07-29T02:25:03.187Z,88573.22
2022-07-29T02:27:48.943Z,88581.84
2022-07-29T02:30:33.658Z,88586.16
2022-07-29T02:33:18.533Z,88588.25
2022-07-29T02:36:03.187Z,88593.13
2022-07-29T02:38:48.067Z,88586.81
2022-07-29T02:41:32.745Z,88593.81
2022-07-29T02:44:17.846Z,88585.88
2022-07-29T02:47:02.863Z,88587.00
2022-07-29T02:49:48.067Z,88574.84
2022-07-29T02:52:33.100Z,88569.53
2022-07-29T02:55:17.875Z,88569.38
2022-07-29T02:58:02.749Z,88569.38
2022-07-29T03:00:47.510Z,88575.09
2022-07-29T03:03:32.281Z,88579.31
2022-07-29T03:06:30.954Z,88581.72
2022-07-29T03:09:21.768Z,88586.06
2022-07-29T03:12:06.537Z,88589.44
2022-07-29T03:14:51.253Z,88592.66
2022-07-29T03:17:36.230Z,88591.00
2022-07-29T03:20:21.020Z,88595.06
2022-07-29T03:23:05.712Z,88595.75
2022-07-29T03:25:50.559Z,88595.06
2022-07-29T03:28:35.318Z,88598.25
2022-07-29T03:31:21.670Z,88589.78
2022-07-29T03:34:06.937Z,88588.94
2022-07-29T03:36:51.807Z,88593.66
2022-07-29T03:39:36.593Z,88592.41
2022-07-29T03:42:21.279Z,88598.63
2022-07-29T03:45:06.172Z,88592.78
2022-07-29T03:47:53.742Z,88586.94
2022-07-29T03:50:40.663Z,88589.03
2022-07-29T03:53:25.416Z,88585.41
2022-07-29T03:56:10.258Z,88589.28
2022-07-29T03:58:55.019Z,88588.59
2022-07-29T04:01:39.830Z,88589.19
2022-07-29T04:04:25.121Z,88579.56
2022-07-29T04:07:12.369Z,88586.94
2022-07-29T04:09:57.425Z,88582.22
2022-07-29T04:12:42.353Z,88584.75
2022-07-29T04:15:26.929Z,88588.63
2022-07-29T04:18:16.637Z,88582.78
2022-07-29T04:21:01.410Z,88583.22
2022-07-29T04:23:47.935Z,88579.06
2022-07-29T04:26:38.048Z,88576.66
2022-07-29T04:29:22.827Z,88579.56
2022-07-29T04:32:07.530Z,88583.22
2022-07-29T04:34:52.420Z,88581.75
2022-07-29T04:37:37.197Z,88592.03
2022-07-29T04:40:21.970Z,88597.28
2022-07-29T04:43:06.670Z,88601.97
2022-07-29T04:45:52.485Z,88615.47
2022-07-29T04:48:37.700Z,88619.75
2022-07-29T04:51:22.496Z,88625.00
2022-07-29T04:54:07.234Z,88623.97
2022-07-29T04:56:51.989Z,88622.78
2022-07-29T04:59:36.819Z,88617.19
2022-07-29T05:02:21.564Z,88616.31
2022-07-29T05:05:06.272Z,88609.44
2022-07-29T05:07:50.987Z,88608.81
2022-07-29T05:10:35.701Z,88612.16
2022-07-29T05:13:20.492Z,88615.56
2022-07-29T05:16:05.183Z,88612.16
2022-07-29T05:18:50.109Z,88612.22
2022-07-29T05:21:34.811Z,88615.91
2022-07-29T05:24:20.024Z,88616.34
2022-07-29T05:27:05.276Z,88622.72
2022-07-29T05:29:49.928Z,88620.63
2022-07-29T05:32:34.656Z,88627.09
2022-07-29T05:35:19.369Z,88624.66
2022-07-29T05:38:04.027Z,88625.16
2022-07-29T05:40:48.812Z,88622.38
2022-07-29T05:43:33.585Z,88636.91
2022-07-29T05:46:18.328Z,88632.28
2022-07-29T05:49:03.767Z,88634.13
2022-07-29T05:51:48.832Z,88637.03
2022-07-29T05:54:33.558Z,88639.94
2022-07-29T05:57:18.250Z,88640.00
2022-07-29T06:00:02.938Z,88643.00
2022-07-29T06:02:47.562Z,88642.31
2022-07-29T06:05:33.974Z,88641.38
2022-07-29T06:08:18.823Z,88638.22
2022-07-29T06:11:03.479Z,88643.41
2022-07-29T06:13:48.346Z,88638.91
2022-07-29T06:16:33.175Z,88641.75
2022-07-29T06:19:18.604Z,88645.84
2022-07-29T06:22:03.195Z,88645.44
2022-07-29T06:24:48.136Z,88647.13
2022-07-29T06:27:32.862Z,88653.94
2022-07-29T06:30:17.736Z,88649.03
2022-07-29T06:33:02.518Z,88642.72
2022-07-29T06:35:53.192Z,88639.19
2022-07-29T06:38:42.908Z,88636.97
2022-07-29T06:41:32.464Z,88635.50
2022-07-29T06:44:17.527Z,88643.13
2022-07-29T06:47:02.722Z,88633.06
2022-07-29T06:49:47.592Z,88633.22
2022-07-29T06:52:32.262Z,88641.16
2022-07-29T06:55:25.083Z,88646.28
2022-07-29T06:58:10.491Z,88649.97
2022-07-29T07:00:55.252Z,88657.25
2022-07-29T07:03:40.351Z,88643.16
2022-07-29T07:06:25.080Z,88653.38
2022-07-29T07:09:09.756Z,88643.72
2022-07-29T07:11:54.575Z,88646.16
2022-07-29T07:14:39.148Z,88638.84
2022-07-29T07:17:23.852Z,88634.09
2022-07-29T07:20:08.708Z,88623.09
2022-07-29T07:22:53.999Z,88628.16
2022-07-29T07:25:38.745Z,88628.00
2022-07-29T07:28:24.746Z,88629.88
2022-07-29T07:31:09.788Z,88622.09
2022-07-29T07:33:54.588Z,88625.34
2022-07-29T07:36:39.881Z,88619.97
2022-07-29T07:39:24.958Z,88617.44
2022-07-29T07:42:10.310Z,88611.41
2022-07-29T07:45:12.483Z,88615.53
2022-07-29T07:47:57.803Z,88615.28
2022-07-29T07:50:42.520Z,88614.28
2022-07-29T07:53:27.306Z,88611.44
2022-07-29T07:56:12.982Z,88607.31
2022-07-29T07:58:57.854Z,88622.31
2022-07-29T08:01:55.134Z,88616.97
2022-07-29T08:04:41.572Z,88621.78
2022-07-29T08:07:26.320Z,88626.69
2022-07-29T08:10:10.990Z,88622.81
2022-07-29T08:12:55.797Z,88631.22
2022-07-29T08:15:40.520Z,88636.25
2022-07-29T08:18:25.344Z,88637.72
2022-07-29T08:21:10.102Z,88654.97
2022-07-29T08:24:00.678Z,88650.31
2022-07-29T08:26:47.521Z,88648.81
2022-07-29T08:29:32.182Z,88649.63
2022-07-29T08:32:31.122Z,88654.78
2022-07-29T08:35:21.580Z,88657.28
2022-07-29T08:38:06.417Z,88654.09
2022-07-29T08:40:51.066Z,88649.03
2022-07-29T08:43:35.856Z,88656.34
2022-07-29T08:46:20.516Z,88648.75
2022-07-29T08:49:05.938Z,88643.56
2022-07-29T08:51:51.096Z,88637.16
2022-07-29T08:54:35.738Z,88636.78
2022-07-29T08:57:20.469Z,88633.94
2022-07-29T09:00:08.134Z,88628.22
2022-07-29T09:02:56.976Z,88626.41
2022-07-29T09:05:44.927Z,88633.59
2022-07-29T09:08:33.114Z,88629.47
2022-07-29T09:11:17.710Z,88636.09
2022-07-29T09:14:02.660Z,88635.47
2022-07-29T09:16:53.152Z,88636.16
2022-07-29T09:19:39.031Z,88645.41
2022-07-29T09:22:30.064Z,88649.06
2022-07-29T09:25:14.842Z,88649.41
2022-07-29T09:27:59.599Z,88647.84
2022-07-29T09:30:44.446Z,88659.47
2022-07-29T09:33:29.090Z,88669.75
2022-07-29T09:36:14.118Z,88668.94
2022-07-29T09:38:58.748Z,88670.63
2022-07-29T09:41:43.578Z,88680.09
2022-07-29T09:44:28.442Z,88685.53
2022-07-29T09:47:13.327Z,88689.19
2022-07-29T09:49:58.080Z,88692.91
2022-07-29T09:52:42.798Z,88700.13
2022-07-29T09:55:27.603Z,88697.34
2022-07-29T09:58:12.391Z,88705.72
2022-07-29T10:00:57.359Z,88712.16
2022-07-29T10:03:42.123Z,88716.25
2022-07-29T10:06:27.361Z,88719.41
2022-07-29T10:09:12.249Z,88720.38
2022-07-29T10:11:56.969Z,88720.97
2022-07-29T10:14:42.226Z,88723.91
2022-07-29T10:17:26.938Z,88722.53
2022-07-29T10:20:16.303Z,88730.28
2022-07-29T10:23:01.593Z,88734.91
2022-07-29T10:25:46.811Z,88738.28
2022-07-29T10:28:31.602Z,88738.91
2022-07-29T10:31:16.350Z,88745.44
2022-07-29T10:34:01.677Z,88751.00
2022-07-29T10:36:46.372Z,88763.00
2022-07-29T10:39:34.345Z,88765.50
2022-07-29T10:42:29.854Z,88774.53
2022-07-29T10:45:19.184Z,88778.84
2022-07-29T10:48:03.866Z,88786.66
2022-07-29T10:50:50.543Z,88784.00
2022-07-29T10:53:35.837Z,88787.06
2022-07-29T10:56:20.720Z,88793.31
2022-07-29T10:59:10.412Z,88790.81
2022-07-29T11:02:10.820Z,88794.03
2022-07-29T11:05:01.620Z,88792.81
2022-07-29T11:07:46.602Z,88794.44
2022-07-29T11:10:31.950Z,88793.41
2022-07-29T11:13:16.894Z,88781.28
2022-07-29T11:16:02.098Z,88780.31
2022-07-29T11:18:46.811Z,88774.63
2022-07-29T11:21:48.877Z,88767.09
2022-07-29T11:24:36.300Z,88754.91
2022-07-29T11:27:21.733Z,88746.44
2022-07-29T11:30:06.924Z,88743.28
2022-07-29T11:32:51.754Z,88732.47
2022-07-29T11:35:39.646Z,88734.69
2022-07-29T11:38:24.613Z,88728.81
2022-07-29T11:41:12.962Z,88726.47
2022-07-29T11:43:57.676Z,88729.22
2022-07-29T11:46:42.414Z,88727.03
2022-07-29T11:49:32.263Z,88722.47
2022-07-29T11:52:18.093Z,88732.00
2022-07-29T11:55:09.778Z,88735.16
2022-07-29T12:01:04.215Z,88732.56
2022-07-29T12:03:50.245Z,88738.66
2022-07-29T12:06:34.860Z,88743.50
2022-07-29T12:09:19.654Z,88738.97
2022-07-29T12:12:05.760Z,88743.16
2022-07-29T12:14:50.724Z,88745.03
2022-07-29T12:17:36.077Z,88743.84
2022-07-29T12:20:21.179Z,88748.81
2022-07-29T12:23:07.497Z,88746.03
2022-07-29T12:25:52.137Z,88746.38
2022-07-29T12:28:38.755Z,88750.75
2022-07-29T12:31:41.985Z,88760.22
2022-07-29T12:34:28.917Z,88751.53
2022-07-29T12:37:13.724Z,88751.16
2022-07-29T12:39:58.364Z,88751.81
2022-07-29T12:42:43.231Z,88747.13
2022-07-29T12:45:27.985Z,88754.38
2022-07-29T12:48:12.685Z,88749.38
2022-07-29T12:50:57.627Z,88759.53
2022-07-29T12:53:42.299Z,88759.66
2022-07-29T12:56:42.224Z,88753.72
2022-07-29T12:59:27.303Z,88747.63
2022-07-29T13:02:12.216Z,88758.63
2022-07-29T13:04:56.762Z,88756.56
2022-07-29T13:07:55.822Z,88757.63
2022-07-29T13:10:42.594Z,88758.59
2022-07-29T13:13:28.035Z,88768.47
2022-07-29T13:16:12.828Z,88769.47
2022-07-29T13:18:57.419Z,88775.94
2022-07-29T13:21:42.182Z,88780.78
2022-07-29T13:24:26.965Z,88785.44
2022-07-29T13:27:14.914Z,88791.75
2022-07-29T13:29:59.580Z,88795.03
2022-07-29T13:32:44.225Z,88798.44
2022-07-29T13:35:29.559Z,88807.81
2022-07-29T13:38:14.194Z,88804.66
2022-07-29T13:40:58.885Z,88804.16
2022-07-29T13:43:43.559Z,88807.38
2022-07-29T13:46:28.578Z,88812.88
2022-07-29T13:49:13.691Z,88805.63
2022-07-29T13:51:59.361Z,88805.75
2022-07-29T13:54:44.784Z,88813.50
2022-07-29T13:57:29.355Z,88808.50
2022-07-29T14:00:14.168Z,88802.91
2022-07-29T14:02:58.938Z,88799.44
2022-07-29T14:05:43.727Z,88804.69
2022-07-29T14:08:28.482Z,88805.38
2022-07-29T14:11:13.295Z,88805.03
2022-07-29T14:13:57.934Z,88807.88
2022-07-29T14:16:47.766Z,88806.00
2022-07-29T14:19:37.379Z,88796.13
2022-07-29T14:22:25.382Z,88799.59
2022-07-29T14:25:14.459Z,88803.22
2022-07-29T14:27:59.951Z,88804.97
2022-07-29T14:30:44.785Z,88809.59
2022-07-29T14:33:29.403Z,88815.56
2022-07-29T14:36:14.141Z,88809.28
2022-07-29T14:38:59.120Z,88804.47
2022-07-29T14:41:44.480Z,88800.13
2022-07-29T14:44:29.433Z,88805.31
2022-07-29T14:47:14.170Z,88803.34
2022-07-29T14:49:59.023Z,88798.81
2022-07-29T14:52:43.752Z,88801.75
2022-07-29T14:55:28.608Z,88796.06
2022-07-29T14:58:16.550Z,88792.44
2022-07-29T15:01:01.796Z,88791.66
2022-07-29T15:03:47.015Z,88792.66
2022-07-29T15:06:31.620Z,88788.06
2022-07-29T15:09:16.468Z,88795.00
2022-07-29T15:12:01.473Z,88795.78
2022-07-29T15:14:46.635Z,88787.13
2022-07-29T15:17:31.427Z,88788.53
2022-07-29T15:20:16.161Z,88781.81
2022-07-29T15:23:00.785Z,88781.00
2022-07-29T15:25:45.452Z,88784.13
2022-07-29T15:28:30.278Z,88788.63
2022-07-29T15:31:14.918Z,88788.53
2022-07-29T15:34:05.039Z,88782.63
2022-07-29T15:36:52.787Z,88789.69
2022-07-29T15:39:38.258Z,88785.63
2022-07-29T15:42:23.015Z,88795.66
2022-07-29T15:45:07.675Z,88790.13
2022-07-29T15:47:52.463Z,88796.34
2022-07-29T15:50:38.350Z,88793.81
2022-07-29T15:53:23.090Z,88790.72
2022-07-29T15:56:07.910Z,88785.19
2022-07-29T15:58:52.640Z,88793.19
2022-07-29T16:01:37.440Z,88785.53
2022-07-29T16:04:28.011Z,88801.13
2022-07-29T16:07:12.659Z,88799.69
2022-07-29T16:09:59.536Z,88796.97
2022-07-29T16:12:44.242Z,88798.66
2022-07-29T16:15:29.054Z,88792.28
2022-07-29T16:18:13.902Z,88791.88
2022-07-29T16:20:58.591Z,88793.78
2022-07-29T16:23:43.441Z,88790.84
2022-07-29T16:26:28.080Z,88795.91
2022-07-29T16:29:12.915Z,88795.56
2022-07-29T16:31:57.699Z,88793.84
2022-07-29T16:34:43.027Z,88786.75
2022-07-29T16:37:28.808Z,88785.72
2022-07-29T16:40:13.974Z,88790.81
2022-07-29T16:42:58.819Z,88783.28
2022-07-29T16:45:46.090Z,88788.25
2022-07-29T16:48:31.467Z,88781.22
2022-07-29T16:51:16.164Z,88784.16
2022-07-29T16:54:01.022Z,88779.56
2022-07-29T16:56:45.830Z,88779.06
2022-07-29T16:59:30.544Z,88782.13
2022-07-29T17:02:15.427Z,88776.66
2022-07-29T17:05:00.601Z,88780.84
2022-07-29T17:07:47.974Z,88788.56
2022-07-29T17:10:32.713Z,88777.31
2022-07-29T17:13:17.467Z,88780.66
2022-07-29T17:16:02.192Z,88785.28
2022-07-29T17:18:47.341Z,88796.69
2022-07-29T17:21:32.110Z,88789.72
2022-07-29T17:24:16.819Z,88793.63
2022-07-29T17:27:01.823Z,88786.69
2022-07-29T17:29:46.596Z,88792.66
2022-07-29T17:32:31.424Z,88798.09
2022-07-29T17:35:16.229Z,88791.97
2022-07-29T17:38:01.084Z,88789.19
2022-07-29T17:40:45.724Z,88788.63
2022-07-29T17:43:30.494Z,88795.31
2022-07-29T17:46:15.300Z,88792.38
2022-07-29T17:49:00.496Z,88793.06
2022-07-29T17:51:45.210Z,88792.22
2022-07-29T17:54:30.026Z,88794.19
2022-07-29T17:57:14.855Z,88795.16
2022-07-29T17:59:59.514Z,88798.63
2022-07-29T18:02:44.314Z,88791.41
2022-07-29T18:05:29.354Z,88784.84
2022-07-29T18:08:14.214Z,88792.50
2022-07-29T18:10:59.032Z,88793.34
2022-07-29T18:13:43.730Z,88789.84
2022-07-29T18:16:28.438Z,88797.53
2022-07-29T18:19:13.670Z,88799.19
2022-07-29T18:22:03.521Z,88797.50
2022-07-29T18:24:50.642Z,88798.91
2022-07-29T18:27:35.314Z,88803.38
2022-07-29T18:30:20.080Z,88804.91
2022-07-29T18:33:20.686Z,88803.63
2022-07-29T18:36:11.448Z,88804.50
2022-07-29T18:38:56.893Z,88805.19
2022-07-29T18:41:49.947Z,88816.00
2022-07-29T18:44:43.502Z,88826.31
2022-07-29T18:47:32.303Z,88827.41
2022-07-29T18:50:17.604Z,88827.00
2022-07-29T18:53:02.421Z,88832.16
2022-07-29T18:55:47.301Z,88828.13
2022-07-29T18:58:32.109Z,88830.91
2022-07-29T19:01:17.029Z,88820.59
2022-07-29T19:04:01.736Z,88836.47
2022-07-29T19:06:46.570Z,88839.09
2022-07-29T19:09:31.377Z,88841.06
2022-07-29T19:12:16.573Z,88835.91
2022-07-29T19:15:01.203Z,88845.34
2022-07-29T19:17:46.006Z,88838.97
2022-07-29T19:20:30.759Z,88839.09
2022-07-29T19:23:15.416Z,88839.09
2022-07-29T19:26:00.310Z,88843.13
2022-07-29T19:28:48.806Z,88850.13
2022-07-29T19:31:34.557Z,88852.75
2022-07-29T19:34:19.859Z,88854.16
2022-07-29T19:37:04.510Z,88850.50
2022-07-29T19:39:49.342Z,88852.06
2022-07-29T19:42:34.146Z,88857.38
2022-07-29T19:45:19.015Z,88860.69
2022-07-29T19:48:03.695Z,88861.38
2022-07-29T19:50:48.501Z,88862.06
2022-07-29T19:53:33.199Z,88859.81
2022-07-29T19:56:17.903Z,88860.13
2022-07-29T19:59:02.627Z,88865.84
2022-07-29T20:01:52.521Z,88867.75
2022-07-29T20:04:37.663Z,88870.97
2022-07-29T20:07:22.363Z,88871.13
2022-07-29T20:10:06.977Z,88875.53
2022-07-29T20:12:52.469Z,88875.81
2022-07-29T20:15:39.886Z,88882.38
2022-07-29T20:18:25.261Z,88885.94
2022-07-29T20:21:09.911Z,88892.06
2022-07-29T20:23:54.679Z,88889.00
2022-07-29T20:26:39.513Z,88890.81
2022-07-29T20:29:24.117Z,88892.75
2022-07-29T20:32:08.936Z,88896.78
2022-07-29T20:34:53.710Z,88896.94
2022-07-29T20:37:52.246Z,88891.91
2022-07-29T20:40:41.300Z,88894.72
2022-07-29T20:43:25.958Z,88895.66
2022-07-29T20:46:10.730Z,88892.47
2022-07-29T20:48:55.414Z,88890.94
2022-07-29T20:51:43.511Z,88884.41
2022-07-29T20:54:28.780Z,88883.03
2022-07-29T20:57:13.615Z,88879.69
2022-07-29T20:59:58.298Z,88878.28
2022-07-29T21:02:42.993Z,88879.00
2022-07-29T21:05:28.347Z,88874.25
2022-07-29T21:08:13.130Z,88878.56
2022-07-29T21:10:57.831Z,88879.78
2022-07-29T21:13:42.497Z,88871.88
2022-07-29T21:16:27.428Z,88876.53
2022-07-29T21:19:12.490Z,88888.84
2022-07-29T21:21:57.332Z,88880.13
2022-07-29T21:24:42.111Z,88874.50
2022-07-29T21:27:27.949Z,88890.44
2022-07-29T21:30:13.235Z,88885.72
2022-07-29T21:32:58.012Z,88896.25
2022-07-29T21:36:01.629Z,88896.66
2022-07-29T21:38:47.804Z,88896.09
2022-07-29T21:41:32.647Z,88894.72
2022-07-29T21:44:17.608Z,88894.72
2022-07-29T21:47:02.716Z,88891.53
2022-07-29T21:49:47.729Z,88892.63
2022-07-29T21:52:34.432Z,88887.06
2022-07-29T21:55:21.979Z,88882.16
2022-07-29T21:58:09.431Z,88888.16
2022-07-29T22:00:54.226Z,88884.66
2022-07-29T22:03:40.411Z,88882.44
2022-07-29T22:06:25.223Z,88881.41
2022-07-29T22:09:09.964Z,88877.94
2022-07-29T22:11:54.839Z,88882.59
2022-07-29T22:14:39.586Z,88888.44
2022-07-29T22:17:24.815Z,88892.44
2022-07-29T22:20:09.549Z,88892.44
2022-07-29T22:22:54.257Z,88893.53
2022-07-29T22:25:38.960Z,88896.16
2022-07-29T22:28:23.676Z,88900.44
2022-07-29T22:31:08.436Z,88897.81
2022-07-29T22:33:53.516Z,88902.22
2022-07-29T22:36:38.311Z,88896.25
2022-07-29T22:39:23.172Z,88899.00
2022-07-29T22:42:08.015Z,88889.53
2022-07-29T22:44:52.785Z,88888.59
2022-07-29T22:47:46.115Z,88893.16
2022-07-29T22:50:33.597Z,88898.03
2022-07-29T22:53:18.351Z,88894.16
2022-07-29T22:56:03.523Z,88893.00
2022-07-29T22:58:48.437Z,88890.00
2022-07-29T23:01:37.853Z,88886.72
2022-07-29T23:04:23.391Z,88892.69
2022-07-29T23:07:08.281Z,88885.00
2022-07-29T23:09:52.956Z,88884.16
2022-07-29T23:12:37.846Z,88890.09
2022-07-29T23:15:22.506Z,88883.22
2022-07-29T23:18:07.326Z,88884.44
2022-07-29T23:20:52.114Z,88882.91
2022-07-29T23:23:36.952Z,88879.72
2022-07-29T23:26:21.567Z,88886.09
2022-07-29T23:29:06.214Z,88884.78
2022-07-29T23:31:51.009Z,88872.16
2022-07-29T23:34:35.726Z,88870.50
2022-07-29T23:37:20.535Z,88880.53
2022-07-29T23:40:05.356Z,88883.28
2022-07-29T23:42:50.275Z,88889.41
2022-07-29T23:45:44.673Z,88889.19
2022-07-29T23:48:33.319Z,88893.50
2022-07-29T23:51:18.094Z,88893.81
2022-07-29T23:54:02.807Z,88882.56
2022-07-29T23:56:47.548Z,88891.72
2022-07-29T23:59:32.474Z,88893.25
